Аэропорт: Актау. Актау

ICAO: UATE

METAR:
2021-07-28 14:00:00
UATE 281400Z 31006MPS 260V340 9999 FEW050 23/15 Q1012 R30/0///70 NOSIG RMK QFE758/1010
METAR:
2021-07-28 11:04:00
TAF UATE 281104Z 2812/2912 36003G08MPS 9999 SCT040CB TX31/2909Z TN17/2901Z TEMPO 2812/2816 32008G14MPS -TSRA